Time;durP1;ratioP1;P1;durP2;ratioP2;P2;SDS_P1;SDS_P2;PMS_P1;PMS_P2;Temp;Humidity;BMP_temperature;BMP_pressure;BME280_temperature;BME280_humidity;BME280_pressure;Samples;Min_cycle;Max_cycle;Signal;HPM_P1;HPM_P2
2022/08/04 00:02:04;;;;;;;5.00;2.70;;;;;;;17.54;89.59;94784.56;5117723;27;20188;-80
2022/08/04 00:04:36;;;;;;;6.35;3.10;;;;;;;17.60;88.73;94794.06;5118911;27;20254;-80
2022/08/04 00:07:09;;;;;;;3.17;2.63;;;;;;;17.63;88.76;94795.28;5117897;27;20901;-81
2022/08/04 00:09:41;;;;;;;4.55;2.90;;;;;;;17.56;88.11;94793.19;5132057;27;20211;-81
2022/08/04 00:12:12;;;;;;;5.28;3.38;;;;;;;17.53;88.22;94793.94;5128081;27;20264;-80
2022/08/04 00:14:48;;;;;;;4.60;2.83;;;;;;;17.54;88.44;94795.50;5119518;27;20243;-81
2022/08/04 00:17:20;;;;;;;2.67;2.17;;;;;;;17.58;88.18;94796.38;5130641;27;20188;-81
2022/08/04 00:19:49;;;;;;;3.63;2.50;;;;;;;17.52;88.80;94786.88;5131520;27;20242;-81
2022/08/04 00:22:19;;;;;;;3.25;2.83;;;;;;;17.62;88.54;94782.72;5110864;28;20221;-81
2022/08/04 00:24:46;;;;;;;2.65;2.45;;;;;;;17.54;88.71;94773.59;5125537;27;20265;-80
2022/08/04 00:27:14;;;;;;;3.45;2.67;;;;;;;17.49;88.12;94776.66;5131634;27;20250;-81
2022/08/04 00:29:40;;;;;;;7.13;2.72;;;;;;;17.46;88.41;94774.66;5131308;27;20257;-80
2022/08/04 00:32:08;;;;;;;5.40;4.05;;;;;;;17.47;88.78;94767.22;5131038;27;20207;-81
2022/08/04 00:34:37;;;;;;;5.88;3.38;;;;;;;17.49;88.59;94776.66;5131209;27;20304;-81
2022/08/04 00:37:05;;;;;;;5.18;3.00;;;;;;;17.46;88.54;94777.41;5131428;27;20300;-80
2022/08/04 00:39:33;;;;;;;5.20;2.75;;;;;;;17.39;88.70;94777.25;5131170;27;20659;-80
2022/08/04 00:42:28;;;;;;;4.70;2.75;;;;;;;17.33;88.92;94786.97;5130963;27;20201;-80
2022/08/04 00:45:49;;;;;;;4.05;3.10;;;;;;;17.31;89.69;94787.31;5131177;27;20197;-80
2022/08/04 00:48:26;;;;;;;2.83;2.55;;;;;;;17.20;89.40;94786.38;5117798;27;20221;-80
2022/08/04 00:51:07;;;;;;;4.10;2.47;;;;;;;17.08;89.50;94783.03;5130825;27;20185;-80
2022/08/04 00:53:45;;;;;;;5.55;2.65;;;;;;;17.12;90.11;94783.84;5130601;27;20185;-80
2022/08/04 00:56:30;;;;;;;3.95;3.03;;;;;;;17.18;90.02;94793.34;5131032;27;20621;-80
2022/08/04 00:59:12;;;;;;;4.05;2.67;;;;;;;17.23;89.90;94790.28;5130126;27;20220;-81
2022/08/04 01:01:55;;;;;;;3.15;2.38;;;;;;;17.32;87.55;94796.34;5131404;27;20253;-81
2022/08/04 01:04:32;;;;;;;7.25;3.10;;;;;;;17.38;87.88;94798.38;5130620;27;20221;-81
2022/08/04 01:07:14;;;;;;;5.47;3.08;;;;;;;17.40;87.97;94800.75;5130477;27;20237;-81
2022/08/04 01:09:53;;;;;;;5.55;3.00;;;;;;;17.21;88.11;94789.91;5130331;27;20193;-81
2022/08/04 01:12:38;;;;;;;4.10;3.30;;;;;;;17.13;88.68;94807.34;5130084;27;20229;-80
2022/08/04 01:15:10;;;;;;;4.25;3.22;;;;;;;17.09;88.89;94810.00;5130645;27;20731;-80
2022/08/04 01:17:48;;;;;;;4.30;2.90;;;;;;;17.07;88.81;94804.13;5131461;27;20261;-80
2022/08/04 01:20:20;;;;;;;3.42;2.70;;;;;;;16.95;89.62;94807.81;5131046;27;20294;-80
2022/08/04 01:23:23;;;;;;;3.75;2.58;;;;;;;17.00;89.62;94807.50;5131001;27;20808;-81
2022/08/04 01:26:18;;;;;;;3.03;2.50;;;;;;;17.03;89.62;94815.00;5119275;28;20200;-80
2022/08/04 01:29:04;;;;;;;4.93;2.63;;;;;;;16.99;89.17;94807.88;5130554;28;20189;-80
2022/08/04 01:31:59;;;;;;;4.97;2.60;;;;;;;17.12;88.09;94801.06;5130232;28;20192;-81
2022/08/04 01:34:29;;;;;;;3.28;2.75;;;;;;;17.17;87.76;94792.56;5130158;28;20193;-81
2022/08/04 01:37:03;;;;;;;2.80;2.50;;;;;;;17.00;88.02;94782.88;5130110;28;20261;-81
2022/08/04 01:39:41;;;;;;;5.75;2.47;;;;;;;16.98;87.90;94796.13;5130187;28;20200;-81
2022/08/04 01:42:10;;;;;;;5.40;2.72;;;;;;;16.97;87.81;94789.06;5130294;28;20745;-80
2022/08/04 01:44:40;;;;;;;5.20;2.78;;;;;;;16.88;87.99;94795.94;5132773;27;20636;-81
2022/08/04 01:47:08;;;;;;;6.63;2.47;;;;;;;16.78;88.50;94791.88;5124090;27;20300;-81
2022/08/04 01:49:38;;;;;;;3.17;2.47;;;;;;;16.77;88.83;94790.28;5127386;27;20260;-80
2022/08/04 01:52:07;;;;;;;3.17;2.08;;;;;;;16.74;89.38;94790.22;5124766;27;20200;-80
2022/08/04 01:54:39;;;;;;;6.65;2.72;;;;;;;16.66;90.50;94794.78;5120653;27;20336;-81
2022/08/04 01:57:07;;;;;;;3.35;2.67;;;;;;;16.55;90.61;94799.19;5122362;27;20284;-81
2022/08/04 01:59:35;;;;;;;5.80;3.20;;;;;;;16.49;90.75;94806.13;5119947;27;20276;-81
2022/08/04 02:02:04;;;;;;;2.97;2.35;;;;;;;16.42;91.01;94803.22;5121068;27;20472;-81
2022/08/04 02:04:32;;;;;;;4.70;2.75;;;;;;;16.53;90.30;94796.06;5127824;27;20262;-81
2022/08/04 02:07:07;;;;;;;5.07;2.65;;;;;;;16.57;90.07;94796.88;5126628;27;20728;-81
2022/08/04 02:09:40;;;;;;;5.88;2.80;;;;;;;16.55;89.38;94790.97;5121484;27;20193;-81
2022/08/04 02:12:19;;;;;;;6.72;2.70;;;;;;;16.50;88.85;94794.03;5133937;27;20233;-81
2022/08/04 02:14:56;;;;;;;4.13;2.60;;;;;;;16.48;89.16;94793.59;5125395;27;20276;-81
2022/08/04 02:17:28;;;;;;;4.32;2.20;;;;;;;16.41;89.20;94788.75;5120306;27;20703;-81
2022/08/04 02:20:05;;;;;;;3.78;2.63;;;;;;;16.23;90.66;94799.34;5134340;27;20197;-81
2022/08/04 02:22:33;;;;;;;7.80;2.13;;;;;;;16.17;91.68;94794.53;5134156;27;20292;-81
2022/08/04 02:25:09;;;;;;;6.75;3.30;;;;;;;16.18;91.83;94791.44;5134207;27;20240;-81
2022/08/04 02:27:54;;;;;;;3.50;2.55;;;;;;;16.22;92.49;94786.03;5132947;27;20639;-81
2022/08/04 02:30:22;;;;;;;4.13;2.45;;;;;;;16.27;92.51;94778.34;5112680;28;20182;-81
2022/08/04 02:32:56;;;;;;;3.45;2.55;;;;;;;16.30;92.53;94783.09;5112741;28;20466;-81
2022/08/04 02:35:26;;;;;;;3.10;2.30;;;;;;;16.30;92.34;94783.09;5133783;27;20604;-80
2022/08/04 02:38:01;;;;;;;4.47;2.75;;;;;;;16.27;92.20;94783.00;5133686;27;20193;-81
2022/08/04 02:40:30;;;;;;;4.95;2.38;;;;;;;16.16;91.76;94785.53;5133982;27;20188;-79
2022/08/04 02:42:58;;;;;;;3.15;2.45;;;;;;;16.15;91.76;94791.34;5133832;27;20284;-80
2022/08/04 02:45:27;;;;;;;4.80;2.88;;;;;;;16.12;91.94;94786.63;5131315;27;20256;-80
2022/08/04 02:47:57;;;;;;;3.45;2.45;;;;;;;16.17;92.54;94786.31;5130649;27;20383;-80
2022/08/04 02:50:27;;;;;;;4.07;2.47;;;;;;;16.13;91.80;94794.44;5133141;27;20642;-80
2022/08/04 02:52:56;;;;;;;3.35;2.35;;;;;;;16.13;92.66;94794.44;5134019;27;20239;-79
2022/08/04 02:55:24;;;;;;;4.28;3.45;;;;;;;16.17;92.69;94798.03;5132647;27;20225;-79
2022/08/04 02:57:52;;;;;;;4.53;2.67;;;;;;;16.20;92.54;94800.06;5133047;27;20260;-80
2022/08/04 03:00:19;;;;;;;4.40;2.58;;;;;;;16.22;91.70;94803.25;5133360;27;20288;-79
2022/08/04 03:03:08;;;;;;;5.13;2.42;;;;;;;16.32;90.94;94805.41;5118740;27;20288;-80
2022/08/04 03:05:58;;;;;;;3.90;2.70;;;;;;;16.15;91.26;94803.06;5133251;27;20625;-80
2022/08/04 03:08:53;;;;;;;3.72;2.70;;;;;;;16.10;91.27;94810.78;5133203;27;20193;-80
2022/08/04 03:11:35;;;;;;;4.13;2.78;;;;;;;16.19;90.71;94806.69;5074729;28;20908;-80
2022/08/04 03:14:41;;;;;;;6.13;3.03;;;;;;;16.10;90.74;94808.03;5112355;28;20201;-80
2022/08/04 03:17:41;;;;;;;6.20;2.50;;;;;;;16.23;90.78;94810.28;5112166;28;20283;-80
2022/08/04 03:20:32;;;;;;;4.03;2.90;;;;;;;16.31;90.73;94808.47;5112125;28;20201;-80
2022/08/04 03:23:19;;;;;;;3.42;2.42;;;;;;;16.37;90.55;94803.53;5112468;28;20186;-80
2022/08/04 03:26:36;;;;;;;3.70;2.65;;;;;;;16.47;89.97;94794.75;5091973;28;20289;-80
2022/08/04 03:29:34;;;;;;;3.58;2.63;;;;;;;16.57;88.71;94796.88;5057191;28;20191;-80
2022/08/04 03:32:35;;;;;;;3.50;2.58;;;;;;;16.85;88.17;94800.19;5111572;28;20254;-80
2022/08/04 03:35:27;;;;;;;8.40;3.42;;;;;;;17.07;86.79;94792.38;5111310;28;20623;-80
2022/08/04 03:38:24;;;;;;;3.85;2.70;;;;;;;17.16;86.60;94795.66;5111706;28;20196;-80
2022/08/04 03:41:06;;;;;;;5.82;3.30;;;;;;;17.27;85.51;94793.88;5110953;28;20687;-80
2022/08/04 03:43:57;;;;;;;5.97;2.83;;;;;;;17.37;84.85;94790.53;5091098;28;20673;-81
2022/08/04 03:46:53;;;;;;;4.50;2.70;;;;;;;17.37;83.47;94783.09;5096087;28;20221;-80
2022/08/04 03:49:48;;;;;;;4.18;3.17;;;;;;;17.42;83.78;94798.44;5112069;28;20258;-79
2022/08/04 03:55:42;;;;;;;5.13;3.40;;;;;;;17.76;83.77;94791.19;5091028;28;20314;-80
2022/08/04 03:58:35;;;;;;;7.63;3.38;;;;;;;18.24;83.83;94794.19;5099044;28;20228;-80
2022/08/04 04:01:13;;;;;;;4.53;3.50;;;;;;;18.62;80.97;94787.63;5111518;28;20254;-80
2022/08/04 04:04:15;;;;;;;4.88;3.45;;;;;;;19.45;78.92;94793.56;5111207;28;20301;-79
2022/08/04 04:07:33;;;;;;;4.45;3.35;;;;;;;20.88;73.26;94787.75;5101960;28;20208;-78
2022/08/04 04:10:38;;;;;;;8.38;3.17;;;;;;;22.06;68.13;94781.16;5091016;28;20335;-78
2022/08/04 04:13:46;;;;;;;4.65;3.60;;;;;;;23.26;65.12;94781.84;5108395;27;20197;-83
2022/08/04 04:16:43;;;;;;;4.30;3.25;;;;;;;23.65;63.27;94781.59;5121940;27;20189;-79
2022/08/04 04:19:29;;;;;;;7.88;3.20;;;;;;;23.49;63.80;94789.63;5119658;27;20201;-79
2022/08/04 04:22:17;;;;;;;6.38;2.92;;;;;;;22.61;66.27;94792.44;5131979;27;20687;-80
2022/08/04 04:24:59;;;;;;;3.85;3.00;;;;;;;21.92;67.80;94804.00;5129005;27;20339;-75
2022/08/04 04:27:40;;;;;;;8.50;2.90;;;;;;;21.90;69.36;94795.31;5126840;27;20222;-75
2022/08/04 04:30:11;;;;;;;5.70;3.35;;;;;;;22.45;65.91;94800.38;5121761;27;20682;-74
2022/08/04 04:32:59;;;;;;;5.82;3.35;;;;;;;22.80;65.64;94795.94;5130039;27;20197;-80
2022/08/04 04:35:37;;;;;;;4.28;3.30;;;;;;;22.86;66.07;94791.56;5118415;27;20231;-75
2022/08/04 04:38:21;;;;;;;4.50;3.47;;;;;;;22.78;66.04;94792.78;5130633;27;20706;-76
2022/08/04 04:41:04;;;;;;;6.60;3.22;;;;;;;22.47;66.47;94798.00;5130841;27;20213;-76
2022/08/04 04:43:46;;;;;;;4.28;3.88;;;;;;;22.30;67.44;94796.06;5110089;28;20293;-75
2022/08/04 04:46:21;;;;;;;5.97;4.50;;;;;;;21.87;68.04;94809.91;5119328;27;20622;-77
2022/08/04 04:48:54;;;;;;;3.42;3.03;;;;;;;21.73;69.25;94804.41;5119163;27;20651;-74
2022/08/04 04:51:29;;;;;;;8.43;2.92;;;;;;;21.45;68.68;94802.44;5123684;27;20598;-75
2022/08/04 04:54:04;;;;;;;6.72;3.35;;;;;;;21.08;70.06;94805.50;5124581;27;20227;-75
2022/08/04 04:56:40;;;;;;;6.30;3.55;;;;;;;20.80;72.08;94808.16;5118319;27;20189;-78
2022/08/04 04:59:11;;;;;;;6.22;4.80;;;;;;;20.90;71.90;94796.41;5126905;27;20224;-76
2022/08/04 05:01:49;;;;;;;6.50;4.15;;;;;;;21.08;70.18;94790.94;5119879;27;20204;-75
2022/08/04 05:04:43;;;;;;;6.03;4.75;;;;;;;21.34;69.89;94804.38;5130588;27;20309;-75
2022/08/04 05:07:36;;;;;;;4.28;3.35;;;;;;;21.26;70.49;94798.09;5124734;27;20667;-75
2022/08/04 05:10:13;;;;;;;5.05;3.50;;;;;;;21.18;70.94;94807.47;5123533;27;20242;-76
2022/08/04 05:13:10;;;;;;;5.18;3.85;;;;;;;21.88;69.17;94805.97;5112896;27;20193;-76
2022/08/04 05:15:42;;;;;;;6.65;3.55;;;;;;;22.15;68.94;94811.09;5116256;27;20288;-75
2022/08/04 05:18:14;;;;;;;5.88;4.85;;;;;;;22.59;67.21;94811.38;5130407;27;20779;-76
2022/08/04 05:20:45;;;;;;;5.97;4.93;;;;;;;22.97;64.04;94806.09;5117756;27;20205;-75
2022/08/04 05:23:17;;;;;;;7.47;4.90;;;;;;;22.59;64.90;94811.38;5128618;27;20192;-72
2022/08/04 05:25:48;;;;;;;8.07;4.78;;;;;;;22.11;67.37;94824.13;5119131;28;20272;-78
2022/08/04 05:28:18;;;;;;;6.85;5.47;;;;;;;21.66;67.92;94823.72;5116589;28;20205;-77
2022/08/04 05:30:50;;;;;;;5.15;4.65;;;;;;;23.45;63.79;94805.44;5130203;28;20215;-74
2022/08/04 05:33:22;;;;;;;6.45;4.97;;;;;;;24.00;60.26;94811.75;5116236;28;20200;-75
2022/08/04 05:35:53;;;;;;;7.72;4.78;;;;;;;25.90;55.78;94806.25;5130536;28;20268;-75
2022/08/04 05:38:23;;;;;;;6.00;4.88;;;;;;;27.60;50.17;94804.94;5130370;28;20200;-75
2022/08/04 05:40:52;;;;;;;9.30;4.72;;;;;;;29.23;46.83;94805.47;5126327;28;20648;-76
2022/08/04 05:43:22;;;;;;;6.50;4.70;;;;;;;30.52;44.20;94788.97;5126888;28;20201;-78
2022/08/04 05:45:50;;;;;;;7.55;5.55;;;;;;;31.16;41.80;94807.13;5129972;27;20299;-77
2022/08/04 05:48:18;;;;;;;6.65;4.95;;;;;;;31.44;40.74;94794.81;5122903;28;20201;-78
2022/08/04 05:50:46;;;;;;;7.47;5.55;;;;;;;31.66;41.09;94794.81;5118685;28;20205;-77
2022/08/04 05:53:15;;;;;;;8.27;5.97;;;;;;;32.24;39.53;94794.09;5120209;28;20208;-81
2022/08/04 05:55:43;;;;;;;5.53;4.88;;;;;;;32.67;39.01;94797.84;5118484;28;20205;-77
2022/08/04 05:58:10;;;;;;;6.07;5.43;;;;;;;31.40;40.12;94799.00;5129207;28;20201;-78
2022/08/04 06:00:41;;;;;;;7.25;5.32;;;;;;;32.73;39.12;94796.03;5117622;28;20198;-78
2022/08/04 06:03:10;;;;;;;6.63;5.93;;;;;;;31.59;39.89;94800.63;5116524;28;20185;-80
2022/08/04 06:05:39;;;;;;;6.00;5.50;;;;;;;32.41;39.00;94798.13;5112054;28;20233;-81
2022/08/04 06:08:06;;;;;;;9.07;5.65;;;;;;;31.21;40.79;94809.31;5130332;28;20201;-81
2022/08/04 06:10:34;;;;;;;19.75;10.77;;;;;;;30.34;43.16;94809.19;5126623;28;20659;-80
2022/08/04 06:13:06;;;;;;;7.53;5.82;;;;;;;29.47;44.18;94814.34;5120182;28;20204;-77
2022/08/04 06:15:38;;;;;;;7.35;6.00;;;;;;;27.45;48.88;94823.16;5128314;28;20201;-78
2022/08/04 06:18:09;;;;;;;8.23;6.00;;;;;;;27.06;50.36;94832.34;5123503;28;20220;-75
2022/08/04 06:20:38;;;;;;;8.43;6.30;;;;;;;25.92;53.97;94817.72;5130107;28;20605;-75
2022/08/04 06:23:09;;;;;;;8.02;5.70;;;;;;;26.06;53.16;94823.03;5130149;28;20205;-80
2022/08/04 06:25:41;;;;;;;6.75;5.72;;;;;;;25.31;54.50;94823.34;5129924;28;20216;-83
2022/08/04 06:28:08;;;;;;;7.38;5.40;;;;;;;25.77;53.96;94821.91;5127953;28;20234;-80
2022/08/04 06:30:36;;;;;;;9.80;5.88;;;;;;;26.14;53.34;94818.91;5118260;27;20755;-79
2022/08/04 06:33:12;;;;;;;7.53;5.82;;;;;;;26.51;53.18;94831.00;5119433;27;20699;-78
2022/08/04 06:35:41;;;;;;;6.45;5.70;;;;;;;27.89;48.73;94810.59;5132878;27;20196;-81
2022/08/04 06:38:11;;;;;;;7.35;5.53;;;;;;;27.56;48.57;94821.72;5133608;27;20716;-80
2022/08/04 06:40:38;;;;;;;6.60;5.20;;;;;;;29.04;46.63;94823.16;5133692;27;20534;-78
2022/08/04 06:43:07;;;;;;;10.18;6.68;;;;;;;29.56;44.84;94820.84;5133362;27;20246;-77
2022/08/04 06:45:36;;;;;;;6.47;5.15;;;;;;;27.90;48.95;94817.75;5129352;27;20628;-75
2022/08/04 06:48:06;;;;;;;7.22;5.78;;;;;;;27.92;48.18;94821.66;5132511;27;20273;-77
2022/08/04 06:50:35;;;;;;;6.60;5.63;;;;;;;26.66;51.14;94832.28;5133276;27;20724;-78
2022/08/04 06:53:03;;;;;;;8.00;5.47;;;;;;;26.39;51.10;94828.81;5133376;27;20204;-79
2022/08/04 06:55:31;;;;;;;6.70;5.97;;;;;;;25.14;54.75;94841.81;5133438;27;20246;-75
2022/08/04 06:57:59;;;;;;;6.35;5.45;;;;;;;25.05;55.79;94843.50;5132554;27;20205;-79
2022/08/04 07:00:27;;;;;;;7.68;5.28;;;;;;;26.45;52.38;94829.91;5133640;27;20201;-77
2022/08/04 07:02:54;;;;;;;8.45;5.70;;;;;;;25.80;53.28;94826.63;5133097;27;20772;-80
2022/08/04 07:05:22;;;;;;;7.90;6.05;;;;;;;24.56;55.84;94842.88;5132943;27;20229;-79
2022/08/04 07:07:49;;;;;;;9.35;6.22;;;;;;;24.58;56.29;94843.25;5132744;27;20265;-80
2022/08/04 07:10:18;;;;;;;8.45;6.70;;;;;;;24.74;56.05;94846.22;5132986;27;20201;-78
2022/08/04 07:12:45;;;;;;;10.52;6.57;;;;;;;24.41;57.50;94835.91;5132481;27;20246;-81
2022/08/04 07:15:13;;;;;;;6.43;5.80;;;;;;;25.30;54.24;94832.88;5131918;27;20850;-76
2022/08/04 07:17:40;;;;;;;11.65;6.53;;;;;;;25.92;52.61;94828.03;5132795;27;20254;-78
2022/08/04 07:20:08;;;;;;;9.45;6.47;;;;;;;26.44;52.00;94825.56;5132627;27;20247;-79
2022/08/04 07:22:36;;;;;;;12.85;6.20;;;;;;;27.37;49.84;94825.31;5132924;27;20213;-78
2022/08/04 07:25:02;;;;;;;9.65;7.03;;;;;;;27.84;48.18;94813.94;5132527;27;20424;-79
2022/08/04 07:27:31;;;;;;;8.95;6.88;;;;;;;28.18;48.08;94825.44;5132022;27;20480;-76
2022/08/04 07:29:58;;;;;;;10.48;7.57;;;;;;;28.62;46.16;94812.72;5132218;27;20268;-78
2022/08/04 07:32:25;;;;;;;8.68;6.75;;;;;;;30.26;43.54;94800.25;5132415;27;20205;-78
2022/08/04 07:34:53;;;;;;;11.27;6.85;;;;;;;30.28;42.51;94797.78;5132891;27;20261;-80
2022/08/04 07:37:20;;;;;;;11.43;6.78;;;;;;;29.97;42.93;94799.63;5132077;27;20200;-81
2022/08/04 07:39:46;;;;;;;9.93;6.55;;;;;;;30.88;42.96;94802.53;5132452;27;20724;-80
2022/08/04 07:42:13;;;;;;;9.25;7.05;;;;;;;30.08;42.64;94796.47;5131441;27;20246;-77
2022/08/04 07:44:45;;;;;;;9.43;6.85;;;;;;;30.13;42.83;94798.72;5130943;27;20278;-74
2022/08/04 07:47:13;;;;;;;10.15;7.00;;;;;;;30.74;42.15;94804.59;5122188;27;20254;-78
2022/08/04 07:49:41;;;;;;;12.10;7.30;;;;;;;30.63;42.44;94809.78;5130797;27;20212;-78
2022/08/04 07:52:08;;;;;;;9.45;6.18;;;;;;;30.08;43.46;94797.25;5132453;27;20265;-77
2022/08/04 07:54:35;;;;;;;7.70;6.50;;;;;;;29.37;44.58;94809.84;5132259;27;20278;-76
2022/08/04 07:57:03;;;;;;;7.47;6.65;;;;;;;30.54;42.16;94806.13;5132024;27;20207;-77
2022/08/04 07:59:30;;;;;;;7.70;6.40;;;;;;;30.17;43.90;94805.75;5127380;27;20194;-77
2022/08/04 08:02:02;;;;;;;7.78;6.40;;;;;;;29.21;45.60;94813.50;5119701;27;20707;-78
2022/08/04 08:04:29;;;;;;;9.13;6.40;;;;;;;28.94;47.09;94814.66;5119407;27;20252;-78
2022/08/04 08:06:57;;;;;;;9.55;6.45;;;;;;;29.28;45.49;94802.13;5131122;27;20211;-78
2022/08/04 08:09:24;;;;;;;9.95;6.80;;;;;;;28.84;46.01;94806.59;5124312;27;20201;-77
2022/08/04 08:11:53;;;;;;;9.45;5.90;;;;;;;29.10;46.41;94810.25;5117394;27;20237;-79
2022/08/04 08:14:20;;;;;;;8.98;6.03;;;;;;;29.29;46.19;94809.28;5120591;27;20201;-78
2022/08/04 08:16:47;;;;;;;6.47;5.53;;;;;;;29.52;45.27;94803.41;5122220;27;20216;-78
2022/08/04 08:19:16;;;;;;;7.45;5.45;;;;;;;30.08;45.75;94791.66;5114358;27;20204;-78
2022/08/04 08:21:48;;;;;;;9.63;5.85;;;;;;;30.35;44.70;94800.31;5124146;27;20197;-78
2022/08/04 08:24:15;;;;;;;7.32;5.28;;;;;;;31.23;43.36;94794.84;5122714;27;20228;-79
2022/08/04 08:26:43;;;;;;;5.47;4.93;;;;;;;30.71;42.08;94807.53;5122143;27;20204;-78
2022/08/04 08:29:10;;;;;;;8.75;4.22;;;;;;;30.90;41.09;94800.81;5118308;27;20208;-78
2022/08/04 08:31:37;;;;;;;6.97;4.85;;;;;;;31.56;40.21;94806.41;5121718;27;20205;-79
2022/08/04 08:34:04;;;;;;;6.43;4.80;;;;;;;32.27;39.27;94795.94;5129879;27;20663;-79
2022/08/04 08:36:37;;;;;;;5.28;4.38;;;;;;;32.21;37.75;94799.84;5130119;27;20203;-78
2022/08/04 08:39:11;;;;;;;4.55;3.83;;;;;;;31.96;38.59;94803.63;5122763;27;20201;-79
2022/08/04 08:42:04;;;;;;;5.53;3.70;;;;;;;32.65;37.93;94800.38;5123653;27;20591;-79
2022/08/04 08:45:15;;;;;;;4.05;3.42;;;;;;;32.49;36.70;94796.59;5122647;27;20629;-79
2022/08/04 08:48:23;;;;;;;4.13;3.42;;;;;;;31.93;39.37;94799.72;5114219;27;20217;-79
2022/08/04 08:51:20;;;;;;;8.90;5.13;;;;;;;30.32;39.79;94801.25;5034824;28;20211;-78
2022/08/04 08:54:19;;;;;;;5.70;3.90;;;;;;;30.35;40.91;94794.72;5126942;27;20200;-79
2022/08/04 08:56:59;;;;;;;7.05;4.70;;;;;;;29.64;41.76;94802.66;5125716;27;20713;-77
2022/08/04 08:59:53;;;;;;;7.15;4.50;;;;;;;29.59;42.33;94805.97;5120937;27;20193;-78
2022/08/04 09:03:10;;;;;;;4.53;4.13;;;;;;;30.34;41.25;94801.56;5113704;27;20193;-78
2022/08/04 09:05:57;;;;;;;8.32;4.70;;;;;;;30.62;41.72;94796.22;5046185;28;20897;-78
2022/08/04 09:08:42;;;;;;;4.65;3.90;;;;;;;30.91;40.51;94793.97;5124108;27;20227;-79
2022/08/04 09:11:15;;;;;;;6.38;4.75;;;;;;;30.99;40.52;94792.50;5128997;27;20577;-78
2022/08/04 09:13:48;;;;;;;10.85;5.00;;;;;;;31.13;39.62;94785.63;5124367;27;20209;-79
2022/08/04 09:16:19;;;;;;;5.88;4.93;;;;;;;30.29;41.81;94785.38;5131037;27;20302;-79
2022/08/04 09:18:54;;;;;;;4.20;3.80;;;;;;;31.64;39.97;94780.47;5125413;27;20246;-79
2022/08/04 09:21:29;;;;;;;6.15;4.28;;;;;;;32.69;38.48;94772.91;5116625;28;20246;-79
2022/08/04 09:24:04;;;;;;;6.70;4.65;;;;;;;32.84;37.77;94773.88;5117889;27;20192;-79
2022/08/04 09:26:40;;;;;;;7.00;4.20;;;;;;;33.40;37.17;94769.75;5130656;27;20212;-77
2022/08/04 09:29:15;;;;;;;5.03;4.22;;;;;;;32.78;36.65;94770.16;5128510;28;20916;-77
2022/08/04 09:31:52;;;;;;;10.30;4.15;;;;;;;32.21;37.41;94772.56;5117010;28;20528;-78
2022/08/04 09:34:27;;;;;;;3.70;3.22;;;;;;;32.47;35.29;94768.25;5118055;28;20197;-78
2022/08/04 09:37:11;;;;;;;5.45;2.75;;;;;;;31.50;35.02;94771.81;5117560;28;20196;-80
2022/08/04 09:39:46;;;;;;;3.63;2.78;;;;;;;31.11;35.76;94778.91;5121382;28;20185;-78
2022/08/04 09:42:23;;;;;;;2.92;2.63;;;;;;;32.01;35.02;94774.97;5121505;28;20197;-79
2022/08/04 09:45:00;;;;;;;3.88;3.00;;;;;;;32.54;34.15;94772.75;5116381;28;20312;-78
2022/08/04 09:47:35;;;;;;;6.13;3.40;;;;;;;33.15;33.22;94766.03;5123953;28;20197;-78
2022/08/04 09:50:12;;;;;;;4.63;3.08;;;;;;;32.60;33.31;94770.88;5110465;28;20583;-78
2022/08/04 09:52:56;;;;;;;2.80;2.45;;;;;;;30.85;33.87;94769.84;5125961;28;20197;-75
2022/08/04 09:55:34;;;;;;;5.53;2.88;;;;;;;31.45;34.98;94767.59;5130229;28;20209;-79
2022/08/04 09:58:11;;;;;;;3.60;2.40;;;;;;;31.44;34.12;94771.63;5113927;28;20186;-78
2022/08/04 10:00:45;;;;;;;3.22;2.80;;;;;;;31.07;34.62;94776.22;5125073;28;20235;-75
2022/08/04 10:03:14;;;;;;;2.72;2.45;;;;;;;30.55;34.93;94776.91;5119644;28;20200;-77
2022/08/04 10:06:00;;;;;;;2.90;2.70;;;;;;;31.17;33.58;94763.84;5128738;27;20225;-79
2022/08/04 10:08:54;;;;;;;3.72;2.95;;;;;;;31.85;32.04;94756.41;5125014;27;20181;-77
2022/08/04 10:11:37;;;;;;;3.10;2.58;;;;;;;31.68;33.22;94758.69;5122917;27;20274;-75
2022/08/04 10:14:21;;;;;;;2.83;2.58;;;;;;;31.56;31.12;94762.38;5124499;27;20185;-79
2022/08/04 10:16:58;;;;;;;4.25;2.40;;;;;;;32.55;29.63;94756.69;5120791;27;20189;-78
2022/08/04 10:19:36;;;;;;;6.80;4.20;;;;;;;32.97;27.35;94760.44;5122777;27;20199;-78
2022/08/04 10:22:15;;;;;;;2.25;2.05;;;;;;;32.96;28.02;94752.50;5120243;27;20245;-79
2022/08/04 10:24:58;;;;;;;3.45;2.42;;;;;;;33.27;28.23;94755.13;5134754;27;20197;-80
2022/08/04 10:27:33;;;;;;;3.90;2.53;;;;;;;31.93;29.83;94745.69;5133920;27;20193;-78
2022/08/04 10:30:10;;;;;;;3.13;2.30;;;;;;;31.92;29.71;94752.53;5126877;27;20209;-80
2022/08/04 10:32:44;;;;;;;3.85;2.75;;;;;;;31.26;31.88;94749.16;5114258;28;20192;-80
2022/08/04 10:35:13;;;;;;;3.50;2.70;;;;;;;30.22;34.05;94752.06;5133582;27;20287;-81
2022/08/04 10:37:46;;;;;;;3.88;2.30;;;;;;;31.04;33.28;94744.31;5131660;27;20269;-78
2022/08/04 10:40:36;;;;;;;6.03;3.30;;;;;;;30.87;33.57;94750.59;5124178;27;20704;-80
2022/08/04 10:43:09;;;;;;;3.17;2.70;;;;;;;31.14;33.67;94741.63;5131845;27;20690;-75
2022/08/04 10:45:44;;;;;;;3.67;3.17;;;;;;;31.20;33.07;94743.34;5132808;27;20224;-79
2022/08/04 10:48:19;;;;;;;3.42;3.13;;;;;;;30.72;33.94;94739.16;5126161;27;20190;-79
2022/08/04 10:50:59;;;;;;;2.67;2.47;;;;;;;29.85;34.30;94744.50;5129617;27;20185;-78
2022/08/04 10:53:30;;;;;;;4.20;2.88;;;;;;;30.50;34.30;94743.91;5122970;27;20678;-78
2022/08/04 10:56:03;;;;;;;3.78;2.78;;;;;;;31.23;32.96;94728.44;5133828;27;20284;-78
2022/08/04 10:58:37;;;;;;;2.80;2.58;;;;;;;31.69;32.97;94737.84;5129573;27;20185;-77
2022/08/04 11:01:15;;;;;;;5.07;2.70;;;;;;;31.26;32.73;94721.94;5120564;27;20291;-74
2022/08/04 11:03:49;;;;;;;2.97;2.13;;;;;;;31.06;30.14;94730.66;5133441;27;20185;-74
2022/08/04 11:06:18;;;;;;;2.28;2.08;;;;;;;31.20;29.99;94722.97;5119820;27;20511;-78
2022/08/04 11:08:50;;;;;;;2.90;2.58;;;;;;;31.86;29.21;94735.53;5120061;27;20701;-77
2022/08/04 11:11:24;;;;;;;3.00;2.35;;;;;;;32.22;30.00;94718.06;5122943;27;20239;-76
2022/08/04 11:13:59;;;;;;;2.88;2.50;;;;;;;32.63;28.75;94719.47;5124524;27;20661;-77
2022/08/04 11:16:33;;;;;;;2.33;2.13;;;;;;;32.60;29.74;94714.00;5119749;27;20189;-77
2022/08/04 11:19:11;;;;;;;3.65;2.78;;;;;;;31.30;31.28;94716.94;5117108;27;20662;-78
2022/08/04 11:21:45;;;;;;;3.58;2.97;;;;;;;31.28;31.53;94713.06;5127366;27;20300;-77
2022/08/04 11:24:17;;;;;;;3.35;2.55;;;;;;;31.68;32.66;94713.88;5123651;27;20563;-76
2022/08/04 11:26:51;;;;;;;4.93;2.55;;;;;;;31.61;29.85;94699.34;5129797;27;20221;-74
2022/08/04 11:29:25;;;;;;;2.83;2.40;;;;;;;32.29;29.75;94705.75;5128031;27;20254;-79
2022/08/04 11:31:59;;;;;;;4.43;2.20;;;;;;;31.70;29.42;94710.63;5119207;27;20315;-87
2022/08/04 11:34:27;;;;;;;2.25;2.05;;;;;;;30.81;31.90;94725.22;5132686;27;20226;-75
2022/08/04 11:37:05;;;;;;;5.10;2.33;;;;;;;30.41;32.53;94716.66;5118893;27;20679;-82
2022/08/04 11:39:35;;;;;;;2.80;2.13;;;;;;;30.09;33.67;94709.38;5118481;27;20223;-80
2022/08/04 11:42:10;;;;;;;2.97;2.60;;;;;;;29.66;33.98;94708.00;5121767;27;20279;-78
2022/08/04 11:44:43;;;;;;;3.42;2.50;;;;;;;30.12;33.56;94702.91;5132116;27;20223;-77
2022/08/04 11:47:25;;;;;;;9.27;2.80;;;;;;;30.31;33.41;94699.03;5126013;27;20695;-77
2022/08/04 11:49:58;;;;;;;2.90;2.08;;;;;;;30.80;32.41;94692.88;5121688;27;20205;-79
2022/08/04 11:52:28;;;;;;;3.05;2.70;;;;;;;30.90;32.43;94694.47;5126821;27;20197;-75
2022/08/04 11:54:57;;;;;;;2.80;2.60;;;;;;;31.04;32.05;94705.13;5132295;27;20644;-78
2022/08/04 11:57:25;;;;;;;2.55;2.30;;;;;;;30.67;32.09;94704.13;5118209;27;20198;-79
2022/08/04 11:59:55;;;;;;;2.55;2.30;;;;;;;31.03;31.88;94697.97;5129131;27;20284;-77
2022/08/04 12:03:11;;;;;;;2.67;2.47;;;;;;;32.14;29.27;94689.50;5118656;27;20194;-78
2022/08/04 12:05:51;;;;;;;3.03;2.33;;;;;;;31.56;29.73;94692.34;5125846;27;20694;-78
2022/08/04 12:08:36;;;;;;;2.38;2.17;;;;;;;30.86;31.45;94698.66;5126704;27;20207;-75
2022/08/04 12:11:28;;;;;;;2.22;2.03;;;;;;;30.82;31.04;94704.41;5121470;27;20715;-79
2022/08/04 12:14:04;;;;;;;2.83;2.15;;;;;;;30.59;30.82;94699.28;5121486;27;20197;-80
2022/08/04 12:16:45;;;;;;;2.58;2.30;;;;;;;31.45;30.79;94683.56;5132047;27;20197;-79
2022/08/04 12:19:21;;;;;;;2.83;2.50;;;;;;;30.60;31.42;94703.63;5122385;27;20185;-80
2022/08/04 12:21:53;;;;;;;2.63;2.38;;;;;;;30.52;31.40;94691.88;5131218;27;20257;-79